Currently 50°F in French Valley, California, USA
50°F
52°F / 50°F
calm
0.00"
Saturday, December 15, 2018 1:30 AM PST

French Valley, California Weather Summary
Last 36 Hours

Temperature Winds Hourly Humidity Dewpoint
Time Report Norm Report Norm Max Gusts Precip. Rpt. Norm Rpt. Norm Pressure
1,3Sat 01:30 AM  49.8°F  48°F  calm  1 mph  5 mph  0.00"  68%  79%  39°F  42°F  30.22"
Sat 01:00 AM  51.7°F  48°F  2 mph W  1 mph  7 mph  0.00"  62%  79%  38°F  42°F  30.21"
2Sat 12:34 AM  52.4°F  49°F  4 mph NW  1 mph  6 mph  ----  58%  79%  38°F  42°F  30.21"
Sat 12:00 AM  50.2°F  49°F  4 mph W  1 mph  3 mph  0.00"  66%  78%  39°F  42°F  30.21"
Fri 11:00 PM  53.7°F  50°F  calm  2 mph  4 mph  0.00"  70%  78%  44°F  43°F  30.24"
Fri 10:00 PM  54.4°F  51°F  1 mph NW  1 mph  5 mph  0.00"  61%  77%  41°F  43°F  30.25"
Fri 09:00 PM  55.2°F  52°F  calm  1 mph  3 mph  0.00"  58%  76%  40°F  44°F  30.25"
Fri 08:00 PM  55.5°F  53°F  calm  2 mph  5 mph  0.00"  61%  74%  42°F  45°F  30.24"
Fri 07:00 PM  56.3°F  54°F  3 mph NW  2 mph  4 mph  0.00"  57%  72%  41°F  45°F  30.23"
Fri 06:00 PM  58.2°F  57°F  calm  2 mph  4 mph  0.00"  56%  67%  42°F  45°F  30.22"
Fri 05:00 PM  60.2°F  60°F  calm  2 mph  7 mph  0.00"  57%  60%  44°F  45°F  30.23"
Fri 04:00 PM  64.0°F  63°F  calm  3 mph  5 mph  0.00"  43%  53%  40°F  45°F  30.23"
Fri 03:00 PM  66.0°F  65°F  3 mph NW  4 mph  8 mph  0.00"  38%  49%  39°F  44°F  30.22"
Fri 02:00 PM  63.7°F  65°F  5 mph NW  4 mph  10 mph  0.00"  44%  48%  40°F  44°F  30.23"
Fri 01:00 PM  63.7°F  64°F  3 mph NW  4 mph  7 mph  0.00"  38%  49%  37°F  44°F  30.23"
Fri 12:00 PM  63.0°F  63°F  3 mph NW  3 mph  7 mph  0.00"  41%  52%  38°F  44°F  30.26"
Fri 11:00 AM  60.6°F  60°F  3 mph W  3 mph  7 mph  0.00"  44%  58%  37°F  44°F  30.29"
Fri 10:00 AM  57.8°F  57°F  3 mph NW  3 mph  5 mph  0.00"  51%  64%  39°F  44°F  30.31"
Fri 09:00 AM  55.0°F  53°F  2 mph W  2 mph  7 mph  0.00"  53%  72%  37°F  43°F  30.32"
Fri 08:00 AM  53.2°F  48°F  3 mph NW  2 mph  6 mph  0.00"  51%  79%  35°F  42°F  30.31"
Fri 07:00 AM  51.1°F  46°F  3 mph NW  1 mph  8 mph  0.00"  54%  81%  34°F  40°F  30.31"
Fri 06:00 AM  51.7°F  46°F  3 mph NW  1 mph  9 mph  0.00"  53%  81%  34°F  40°F  30.29"
Fri 05:00 AM  50.0°F  46°F  3 mph NW  2 mph  8 mph  0.00"  57%  81%  35°F  40°F  30.27"
Fri 04:00 AM  50.0°F  47°F  4 mph W  1 mph  8 mph  0.00"  59%  81%  35°F  41°F  30.27"
Fri 03:00 AM  48.4°F  47°F  2 mph W  1 mph  7 mph  0.00"  63%  80%  36°F  41°F  30.28"
Fri 02:00 AM  48.1°F  48°F  2 mph W  1 mph  4 mph  0.00"  66%  79%  37°F  41°F  30.29"
Fri 01:00 AM  49.7°F  48°F  1 mph S  1 mph  5 mph  0.00"  62%  79%  36°F  42°F  30.30"
Fri 12:00 AM  50.8°F  49°F  1 mph N  1 mph  6 mph  0.00"  60%  78%  37°F  42°F  30.31"
Thu 11:00 PM  49.8°F  50°F  2 mph SW  2 mph  5 mph  0.00"  65%  78%  38°F  43°F  30.33"
Thu 10:00 PM  52.0°F  51°F  calm  1 mph  6 mph  0.00"  61%  77%  38°F  43°F  30.32"
Thu 09:00 PM  52.4°F  52°F  3 mph NW  1 mph  6 mph  0.00"  60%  76%  38°F  44°F  30.31"
Thu 08:00 PM  55.3°F  53°F  2 mph E  2 mph  5 mph  0.00"  54%  75%  38°F  45°F  30.29"
Thu 07:00 PM  61.1°F  54°F  3 mph W  2 mph  7 mph  0.00"  40%  73%  36°F  45°F  30.28"
Thu 06:00 PM  63.2°F  57°F  2 mph E  2 mph  16 mph  0.00"  37%  68%  35°F  46°F  30.29"
Thu 05:00 PM  64.7°F  60°F  9 mph E  2 mph  17 mph  0.00"  35%  59%  35°F  45°F  30.25"
Thu 04:00 PM  69.5°F  64°F  9 mph E  3 mph  16 mph  0.00"  31%  52%  36°F  45°F  30.24"
Thu 03:00 PM  74.5°F  65°F  8 mph E  4 mph  13 mph  0.00"  24%  48%  34°F  44°F  30.24"
Thu 02:00 PM  76.7°F  65°F  5 mph E  4 mph  10 mph  0.00"  20%  47%  31°F  44°F  30.24"

  1. Current weather data. No green row appears if the current weather data is also the high or low for the current day.
  2. High temperature for the current day.
  3. Low temperature for the current day.

The French Valley, California weather pages are a service of WeatherCurrents. French Valley is located in southwestern Riverside County, California, north of Temecula, east of Murrieta, and south of Winchester. French Valley is bordered by Lake Skinner.
Copyright ©Sat Dec 15 01:31:47 PST 2018  WeatherCurrents. All rights reserved. - Submit questions and comments - Privacy Policy

This page automatically refreshes every 10 minutes.